Acornridge, Missouri
Current Conditions -  °F | °C
As of 9:53 PM on Saturday 25 Oct 2014 (Local Time) from KPOF Reporting Station
Moderate Fog Moderate Fog  
Wind Chill: 62°   Ceiling: 600
Heat Index: 62°   Visibility: 0.25mi
Dew Point: 60°   Wind: 0mph
Humidity: 93%   Direction: NA
Pressure: 30"   Gusts: NA
Location:  36.9506°N, 90.1582°W
Report Text: KPOF 260253Z AUTO 00000KT 1/4SM FG VV006 17/16 A3000 RMK AO2 SLP158 T01670156 56000
Loading
Personal Weather Stations






























Interactive Weather Map New forecast layout! Learn more

10-Day Weather Forecast

Advertisements
Track Severe Weather on mobile